Time;durP1;ratioP1;P1;durP2;ratioP2;P2;SDS_P1;SDS_P2;PMS_P1;PMS_P2;Temp;Humidity;BMP_temperature;BMP_pressure;BME280_temperature;BME280_humidity;BME280_pressure;Samples;Min_cycle;Max_cycle;Signal;HPM_P1;HPM_P2
2023/09/04 00:00:08;;;;;;;2.13;2.03;;;21.50;95.20;;;;;;5047479;28;20190;-69
2023/09/04 00:02:39;;;;;;;1.60;1.50;;;21.50;95.20;;;;;;5039070;28;20247;-68
2023/09/04 00:05:05;;;;;;;2.22;1.80;;;21.50;95.20;;;;;;5042126;28;20190;-68
2023/09/04 00:07:31;;;;;;;2.30;2.00;;;21.40;95.20;;;;;;5054485;28;20234;-66
2023/09/04 00:09:57;;;;;;;2.13;1.75;;;21.50;95.30;;;;;;5029933;28;20198;-68
2023/09/04 00:12:25;;;;;;;2.42;1.83;;;21.50;95.30;;;;;;5034328;28;20213;-66
2023/09/04 00:14:51;;;;;;;1.80;1.70;;;21.50;95.20;;;;;;5051524;28;20232;-68
2023/09/04 00:17:18;;;;;;;2.90;2.17;;;21.50;95.20;;;;;;5045897;28;20198;-68
2023/09/04 00:19:44;;;;;;;1.80;1.70;;;21.50;95.20;;;;;;5046080;28;20190;-68
2023/09/04 00:22:09;;;;;;;2.67;1.88;;;21.50;95.40;;;;;;5037424;28;20443;-68
2023/09/04 00:24:35;;;;;;;2.17;1.98;;;21.50;95.30;;;;;;5055264;28;20190;-71
2023/09/04 00:27:01;;;;;;;2.15;2.00;;;21.50;95.20;;;;;;5045996;28;20207;-67
2023/09/04 00:29:27;;;;;;;2.20;2.00;;;21.50;95.20;;;;;;5054183;28;20579;-67
2023/09/04 00:31:53;;;;;;;2.20;2.00;;;21.50;95.30;;;;;;5020905;28;20680;-68
2023/09/04 00:34:19;;;;;;;1.70;1.60;;;21.40;95.30;;;;;;5037113;28;20712;-68
2023/09/04 00:36:44;;;;;;;1.65;1.55;;;21.40;95.20;;;;;;5029342;28;20226;-69
2023/09/04 00:39:10;;;;;;;2.08;1.70;;;21.50;95.30;;;;;;5053759;28;20182;-68
2023/09/04 00:41:36;;;;;;;2.05;1.85;;;21.50;95.30;;;;;;5022385;28;20191;-68
2023/09/04 00:44:02;;;;;;;2.17;1.98;;;21.50;95.30;;;;;;5058543;28;20195;-68
2023/09/04 00:46:27;;;;;;;1.75;1.65;;;21.50;95.30;;;;;;5049564;28;20202;-68
2023/09/04 00:48:54;;;;;;;1.95;1.80;;;21.40;95.20;;;;;;5042550;28;20218;-67
2023/09/04 00:51:20;;;;;;;2.15;1.88;;;21.40;95.20;;;;;;5053613;28;20186;-68
2023/09/04 00:53:47;;;;;;;2.00;1.80;;;21.40;95.20;;;;;;5047146;28;20235;-68
2023/09/04 00:56:14;;;;;;;1.75;1.65;;;21.50;95.20;;;;;;5041683;28;20168;-69
2023/09/04 00:58:41;;;;;;;1.90;1.75;;;21.40;95.30;;;;;;5041771;28;20198;-68
2023/09/04 01:01:07;;;;;;;1.65;1.50;;;21.50;95.30;;;;;;5051983;28;20189;-68
2023/09/04 01:03:32;;;;;;;1.77;1.67;;;21.40;95.20;;;;;;5053359;28;20186;-68
2023/09/04 01:05:59;;;;;;;2.10;2.00;;;21.50;95.30;;;;;;5027546;28;20182;-67
2023/09/04 01:08:26;;;;;;;2.20;2.00;;;21.50;95.20;;;;;;5046142;28;20753;-67
2023/09/04 01:11:10;;;;;;;2.00;1.90;;;21.50;95.30;;;;;;5046208;28;20189;-68
2023/09/04 01:13:44;;;;;;;1.90;1.80;;;21.40;95.10;;;;;;5025339;28;20214;-69
2023/09/04 01:16:11;;;;;;;4.15;2.08;;;21.40;95.10;;;;;;5027970;28;20185;-70
2023/09/04 01:18:38;;;;;;;3.47;1.80;;;21.40;95.20;;;;;;5044812;28;20278;-67
2023/09/04 01:21:05;;;;;;;1.90;1.80;;;21.40;95.20;;;;;;5036304;28;20198;-68
2023/09/04 01:23:32;;;;;;;1.73;1.63;;;21.40;95.20;;;;;;5053178;28;20197;-68
2023/09/04 01:26:36;;;;;;;2.45;2.00;;;21.40;95.20;;;;;;5043742;28;20178;-69
2023/09/04 01:29:44;;;;;;;2.08;1.88;;;21.40;95.20;;;;;;5097724;27;20635;-68
2023/09/04 01:32:18;;;;;;;2.20;1.75;;;21.50;95.20;;;;;;5076464;28;20210;-68
2023/09/04 01:34:49;;;;;;;2.13;1.90;;;21.40;95.10;;;;;;5075003;28;20185;-68
2023/09/04 01:37:17;;;;;;;1.95;1.85;;;21.40;95.20;;;;;;5078023;28;20726;-68
2023/09/04 01:39:44;;;;;;;1.77;1.67;;;21.40;95.10;;;;;;5051450;28;20189;-68
2023/09/04 01:42:10;;;;;;;1.88;1.73;;;21.40;95.30;;;;;;5076125;28;20195;-70
2023/09/04 01:44:36;;;;;;;1.80;1.70;;;21.40;95.10;;;;;;5059137;28;20181;-69
2023/09/04 01:47:02;;;;;;;2.13;1.92;;;21.40;95.20;;;;;;5058883;28;20196;-68
2023/09/04 01:49:27;;;;;;;2.17;1.98;;;21.40;95.20;;;;;;5057348;28;20206;-68
2023/09/04 01:51:53;;;;;;;1.95;1.85;;;21.40;95.10;;;;;;5072170;28;20205;-68
2023/09/04 01:54:19;;;;;;;1.88;1.77;;;21.40;95.10;;;;;;5070481;28;20187;-68
2023/09/04 01:56:45;;;;;;;2.20;2.00;;;21.40;95.20;;;;;;5079181;28;20197;-68
2023/09/04 01:59:11;;;;;;;1.70;1.60;;;21.40;95.10;;;;;;5068992;28;20177;-68
2023/09/04 02:01:37;;;;;;;1.75;1.65;;;21.40;95.10;;;;;;5081095;28;20189;-68
2023/09/04 02:04:03;;;;;;;1.90;1.70;;;21.40;95.10;;;;;;5078087;28;20679;-68
2023/09/04 02:06:30;;;;;;;2.58;2.17;;;21.40;95.10;;;;;;5054773;28;20213;-68
2023/09/04 02:08:57;;;;;;;1.80;1.70;;;21.40;95.10;;;;;;5053864;28;20198;-69
2023/09/04 02:11:23;;;;;;;2.38;2.17;;;21.40;95.10;;;;;;5054015;28;20239;-68
2023/09/04 02:13:49;;;;;;;1.83;1.73;;;21.40;95.20;;;;;;5071803;28;20190;-68
2023/09/04 02:16:15;;;;;;;2.00;1.90;;;21.40;95.10;;;;;;5065677;28;20178;-68
2023/09/04 02:18:41;;;;;;;2.00;1.90;;;21.40;95.10;;;;;;5050369;28;20641;-69
2023/09/04 02:21:07;;;;;;;2.22;2.03;;;21.40;95.10;;;;;;5066997;28;20225;-68
2023/09/04 02:23:33;;;;;;;2.10;2.00;;;21.40;95.10;;;;;;5075522;28;20189;-67
2023/09/04 02:25:59;;;;;;;1.70;1.60;;;21.40;95.00;;;;;;5075397;28;20182;-68
2023/09/04 02:28:25;;;;;;;1.98;1.88;;;21.40;95.10;;;;;;5066881;28;20236;-68
2023/09/04 02:30:51;;;;;;;2.28;2.08;;;21.40;95.20;;;;;;5075104;28;20716;-68
2023/09/04 02:33:17;;;;;;;1.88;1.77;;;21.40;95.10;;;;;;5060355;28;20272;-69
2023/09/04 02:35:43;;;;;;;1.73;1.63;;;21.40;95.10;;;;;;5069554;28;20174;-69
2023/09/04 02:38:08;;;;;;;2.10;1.90;;;21.40;95.10;;;;;;5063545;28;20240;-68
2023/09/04 02:40:34;;;;;;;2.38;2.17;;;21.40;95.10;;;;;;5037233;28;20202;-70
2023/09/04 02:43:00;;;;;;;2.08;1.90;;;21.40;95.10;;;;;;5036845;28;20221;-67
2023/09/04 02:45:26;;;;;;;2.50;1.83;;;21.40;95.10;;;;;;5053433;28;20225;-68
2023/09/04 02:47:52;;;;;;;2.00;1.90;;;21.40;95.10;;;;;;5053122;28;20700;-69
2023/09/04 02:50:18;;;;;;;2.30;2.10;;;21.40;95.10;;;;;;5036559;28;20193;-68
2023/09/04 02:52:44;;;;;;;2.30;2.15;;;21.40;95.10;;;;;;5053003;28;20198;-68
2023/09/04 02:55:10;;;;;;;2.38;2.08;;;21.40;95.10;;;;;;5052828;28;20201;-68
2023/09/04 02:57:36;;;;;;;2.28;2.08;;;21.30;95.00;;;;;;5054271;28;20194;-69
2023/09/04 03:00:06;;;;;;;2.30;2.10;;;21.40;95.10;;;;;;5052787;28;20186;-67
2023/09/04 03:02:36;;;;;;;2.25;2.05;;;21.40;95.10;;;;;;5036542;28;20197;-68
2023/09/04 03:05:02;;;;;;;2.10;2.00;;;21.40;95.10;;;;;;5052732;28;20289;-70
2023/09/04 03:07:28;;;;;;;2.72;2.53;;;21.30;95.10;;;;;;5052849;28;20218;-68
2023/09/04 03:10:01;;;;;;;2.20;2.00;;;21.40;95.10;;;;;;5052888;28;20245;-68
2023/09/04 03:12:30;;;;;;;2.30;2.10;;;21.40;95.10;;;;;;5052612;28;20600;-68
2023/09/04 03:14:58;;;;;;;2.20;2.00;;;21.40;95.10;;;;;;5035970;28;20179;-68
2023/09/04 03:17:25;;;;;;;1.80;1.70;;;21.30;95.10;;;;;;5052483;28;20213;-68
2023/09/04 03:19:55;;;;;;;2.17;2.08;;;21.40;95.10;;;;;;5052594;28;20224;-69
2023/09/04 03:22:23;;;;;;;2.22;1.90;;;21.40;95.10;;;;;;5051732;28;20195;-66
2023/09/04 03:24:49;;;;;;;2.10;2.00;;;21.40;95.10;;;;;;5049215;28;20217;-69
2023/09/04 03:27:16;;;;;;;1.88;1.77;;;21.40;95.20;;;;;;5033614;28;20242;-70
2023/09/04 03:29:42;;;;;;;1.98;1.88;;;21.40;95.10;;;;;;5052352;28;20688;-68
2023/09/04 03:32:09;;;;;;;2.50;2.30;;;21.40;95.10;;;;;;5052622;28;20185;-68
2023/09/04 03:34:36;;;;;;;1.98;1.88;;;21.40;95.10;;;;;;5019586;28;20183;-68
2023/09/04 03:37:04;;;;;;;2.75;2.15;;;21.40;95.10;;;;;;5052163;28;20209;-68
2023/09/04 03:39:36;;;;;;;2.03;1.92;;;21.40;95.10;;;;;;5052347;28;20198;-67
2023/09/04 03:42:06;;;;;;;2.58;2.38;;;21.40;95.10;;;;;;5035944;28;20186;-68
2023/09/04 03:44:32;;;;;;;2.45;2.25;;;21.40;95.10;;;;;;5035413;28;20256;-68
2023/09/04 03:46:58;;;;;;;2.17;2.00;;;21.40;95.10;;;;;;5052172;28;20780;-68
2023/09/04 03:49:24;;;;;;;2.05;1.95;;;21.40;95.10;;;;;;5052057;28;20186;-69
2023/09/04 03:51:50;;;;;;;2.10;1.90;;;21.40;95.10;;;;;;5051113;28;20186;-69
2023/09/04 03:54:16;;;;;;;2.00;1.90;;;21.30;95.10;;;;;;5053117;28;20197;-70
2023/09/04 03:56:41;;;;;;;2.00;1.90;;;21.40;95.10;;;;;;5053090;28;20220;-67
2023/09/04 03:59:07;;;;;;;2.05;1.90;;;21.30;95.00;;;;;;5047333;28;20662;-67
2023/09/04 04:01:33;;;;;;;2.22;2.03;;;21.30;95.00;;;;;;5064412;28;20185;-68
2023/09/04 04:04:00;;;;;;;2.15;2.05;;;21.40;95.10;;;;;;5046701;28;20192;-68
2023/09/04 04:06:26;;;;;;;2.38;2.17;;;21.30;95.10;;;;;;5060968;28;20178;-68
2023/09/04 04:08:54;;;;;;;3.85;2.08;;;21.30;95.00;;;;;;5056747;28;20278;-68
2023/09/04 04:11:20;;;;;;;2.47;2.28;;;21.40;95.10;;;;;;5057576;28;20224;-67
2023/09/04 04:13:49;;;;;;;2.28;2.17;;;21.40;95.10;;;;;;5056884;28;20268;-67
2023/09/04 04:16:15;;;;;;;2.30;2.15;;;21.30;95.00;;;;;;5045883;28;20169;-68
2023/09/04 04:18:41;;;;;;;2.20;2.00;;;21.30;95.00;;;;;;5059784;28;20274;-69
2023/09/04 04:21:07;;;;;;;2.20;2.10;;;21.40;95.10;;;;;;5042522;28;20197;-69
2023/09/04 04:23:34;;;;;;;2.22;2.13;;;21.40;95.10;;;;;;5060068;28;20215;-68
2023/09/04 04:26:01;;;;;;;2.38;2.20;;;21.30;95.00;;;;;;5059380;28;20182;-67
2023/09/04 04:28:27;;;;;;;2.20;2.10;;;21.30;95.00;;;;;;5059488;28;20221;-68
2023/09/04 04:30:53;;;;;;;2.70;2.50;;;21.30;95.00;;;;;;5042386;28;20274;-68
2023/09/04 04:33:19;;;;;;;2.33;2.20;;;21.30;95.00;;;;;;5056972;28;20273;-68
2023/09/04 04:35:44;;;;;;;2.20;2.10;;;21.40;95.10;;;;;;5059566;28;20174;-67
2023/09/04 04:38:10;;;;;;;2.45;2.25;;;21.40;95.10;;;;;;5059377;28;20210;-68
2023/09/04 04:40:41;;;;;;;2.45;2.33;;;21.30;95.00;;;;;;5057730;28;20190;-67
2023/09/04 04:43:07;;;;;;;2.42;2.22;;;21.30;95.00;;;;;;5059297;28;20217;-68
2023/09/04 04:45:33;;;;;;;2.80;2.60;;;21.30;95.00;;;;;;5047125;28;20191;-67
2023/09/04 04:48:01;;;;;;;2.25;2.08;;;21.40;95.10;;;;;;5040898;28;20696;-68
2023/09/04 04:50:28;;;;;;;2.40;2.20;;;21.30;95.00;;;;;;5051507;28;20237;-70
2023/09/04 04:52:55;;;;;;;2.40;2.20;;;21.30;95.00;;;;;;5051849;28;20257;-68
2023/09/04 04:55:22;;;;;;;2.30;2.10;;;21.30;95.00;;;;;;5052847;28;20185;-68
2023/09/04 04:57:49;;;;;;;2.42;2.22;;;21.30;95.00;;;;;;5056098;28;20205;-69
2023/09/04 05:00:15;;;;;;;2.17;2.00;;;21.30;95.30;;;;;;5062717;28;20212;-68
2023/09/04 05:02:41;;;;;;;2.47;2.28;;;21.30;95.00;;;;;;5054189;28;20186;-67
2023/09/04 05:05:08;;;;;;;2.30;2.20;;;21.30;95.00;;;;;;5046995;28;20239;-68
2023/09/04 05:07:34;;;;;;;2.55;2.35;;;21.30;95.00;;;;;;5050380;28;20194;-68
2023/09/04 05:10:00;;;;;;;2.53;2.40;;;21.30;95.00;;;;;;5050729;28;20279;-69
2023/09/04 05:12:26;;;;;;;2.10;2.00;;;21.30;95.00;;;;;;5058732;28;20652;-68
2023/09/04 05:14:52;;;;;;;2.58;2.40;;;21.30;95.00;;;;;;5055674;28;20182;-68
2023/09/04 05:17:19;;;;;;;2.60;2.40;;;21.30;95.00;;;;;;5061547;28;20234;-69
2023/09/04 05:19:46;;;;;;;2.17;2.08;;;21.30;95.00;;;;;;5042173;28;20182;-68
2023/09/04 05:22:11;;;;;;;2.47;2.28;;;21.30;95.00;;;;;;5034116;28;20197;-68
2023/09/04 05:24:37;;;;;;;2.42;2.22;;;21.30;95.00;;;;;;5058452;28;20216;-67
2023/09/04 05:27:03;;;;;;;2.50;2.30;;;21.30;95.00;;;;;;5058369;28;20206;-68
2023/09/04 05:29:29;;;;;;;2.20;2.10;;;21.30;95.00;;;;;;5060470;28;20233;-67
2023/09/04 05:31:57;;;;;;;2.10;2.00;;;21.30;94.90;;;;;;5062152;28;20190;-68
2023/09/04 05:34:23;;;;;;;2.75;2.55;;;21.30;95.00;;;;;;5044566;28;20182;-67
2023/09/04 05:36:48;;;;;;;2.60;2.40;;;21.30;95.00;;;;;;5058434;28;20563;-68
2023/09/04 05:39:14;;;;;;;2.30;2.20;;;21.30;94.90;;;;;;5058400;28;20193;-70
2023/09/04 05:41:40;;;;;;;2.40;2.20;;;21.30;94.90;;;;;;5058862;28;20198;-68
2023/09/04 05:44:06;;;;;;;2.63;2.42;;;21.30;94.90;;;;;;5059558;28;20194;-69
2023/09/04 05:46:32;;;;;;;2.53;2.33;;;21.30;94.90;;;;;;5059269;28;20213;-68
2023/09/04 05:48:58;;;;;;;2.65;2.45;;;21.30;94.90;;;;;;5058278;28;20264;-68
2023/09/04 05:51:24;;;;;;;2.28;2.08;;;21.30;94.90;;;;;;5058904;28;20248;-67
2023/09/04 05:53:50;;;;;;;2.80;2.60;;;21.30;94.90;;;;;;5062995;28;20189;-68
2023/09/04 05:56:17;;;;;;;2.58;2.38;;;21.30;94.80;;;;;;5053799;28;20174;-68
2023/09/04 05:58:49;;;;;;;2.60;2.40;;;21.30;94.90;;;;;;5049746;28;20191;-68
2023/09/04 06:01:16;;;;;;;2.30;2.20;;;21.30;94.80;;;;;;5033424;28;20198;-68
2023/09/04 06:03:44;;;;;;;2.60;2.40;;;21.30;94.90;;;;;;5041311;28;20665;-67
2023/09/04 06:06:10;;;;;;;2.60;2.40;;;21.30;94.80;;;;;;5058357;28;20241;-69
2023/09/04 06:08:36;;;;;;;2.70;2.50;;;21.30;94.80;;;;;;5060650;28;20206;-67
2023/09/04 06:11:03;;;;;;;2.80;2.60;;;21.30;94.80;;;;;;5044320;28;20211;-67
2023/09/04 06:13:30;;;;;;;2.55;2.35;;;21.30;94.70;;;;;;5040877;28;20244;-67
2023/09/04 06:15:59;;;;;;;2.80;2.60;;;21.30;94.70;;;;;;5057353;28;20178;-68
2023/09/04 06:18:28;;;;;;;2.45;2.30;;;21.30;94.70;;;;;;5063186;28;20599;-67
2023/09/04 06:20:54;;;;;;;2.50;2.30;;;21.30;94.70;;;;;;5056986;28;20189;-69
2023/09/04 06:23:19;;;;;;;2.40;2.30;;;21.30;94.70;;;;;;5058172;28;20551;-68
2023/09/04 06:25:46;;;;;;;2.20;2.10;;;21.30;94.70;;;;;;5056300;28;20186;-67
2023/09/04 06:28:13;;;;;;;3.08;2.88;;;21.30;94.70;;;;;;5048444;28;20217;-68
2023/09/04 06:30:39;;;;;;;2.70;2.50;;;21.30;94.70;;;;;;5064040;28;20192;-67
2023/09/04 06:33:05;;;;;;;2.72;2.53;;;21.30;94.60;;;;;;5061871;28;20182;-67
2023/09/04 06:35:31;;;;;;;2.70;2.50;;;21.30;94.70;;;;;;5053003;28;20190;-68
2023/09/04 06:37:58;;;;;;;2.60;2.40;;;21.30;94.60;;;;;;5061193;28;20202;-66
2023/09/04 06:40:25;;;;;;;6.22;2.83;;;21.30;94.80;;;;;;5044377;28;20305;-66
2023/09/04 06:42:54;;;;;;;4.28;2.50;;;21.30;97.80;;;;;;5057349;28;20208;-67
2023/09/04 06:45:21;;;;;;;3.38;2.20;;;21.50;99.90;;;;;;5056791;28;20186;-66
2023/09/04 06:47:47;;;;;;;4.30;2.53;;;21.60;99.90;;;;;;5061497;28;20238;-68
2023/09/04 06:50:13;;;;;;;2.58;2.35;;;21.60;99.90;;;;;;5061431;28;20183;-68
2023/09/04 06:52:39;;;;;;;2.67;2.30;;;21.60;99.90;;;;;;5062949;28;20182;-67
2023/09/04 06:55:05;;;;;;;3.28;2.40;;;21.60;99.90;;;;;;5064892;28;20182;-68
2023/09/04 06:57:31;;;;;;;3.97;2.88;;;21.60;99.90;;;;;;5063960;28;20206;-68
2023/09/04 06:59:57;;;;;;;5.10;2.80;;;21.60;99.90;;;;;;5054434;28;20182;-67
2023/09/04 07:02:23;;;;;;;5.60;2.58;;;21.60;99.90;;;;;;5061103;28;20205;-68
2023/09/04 07:04:50;;;;;;;4.78;3.20;;;21.60;99.90;;;;;;5064032;28;20304;-68
2023/09/04 07:07:16;;;;;;;6.78;3.28;;;21.60;99.90;;;;;;5047987;28;20209;-67
2023/09/04 07:09:41;;;;;;;2.67;2.47;;;21.60;99.90;;;;;;5064047;28;20181;-68
2023/09/04 07:12:07;;;;;;;5.90;2.83;;;21.60;99.90;;;;;;5052660;28;20190;-69
2023/09/04 07:14:33;;;;;;;3.60;2.75;;;21.70;99.90;;;;;;5061521;28;20262;-68
2023/09/04 07:16:59;;;;;;;3.78;2.42;;;21.60;99.90;;;;;;5065448;28;20276;-68
2023/09/04 07:19:25;;;;;;;4.80;3.40;;;21.70;99.90;;;;;;5064555;28;20657;-67
2023/09/04 07:21:51;;;;;;;3.10;2.65;;;21.70;99.90;;;;;;5043831;28;20649;-67
2023/09/04 07:24:17;;;;;;;4.45;2.40;;;21.70;99.90;;;;;;5061072;28;20269;-68
2023/09/04 07:26:42;;;;;;;3.25;2.50;;;21.70;99.90;;;;;;5063351;28;20256;-67
2023/09/04 07:29:08;;;;;;;3.03;2.70;;;21.60;99.90;;;;;;5058893;28;20214;-67
2023/09/04 07:31:34;;;;;;;3.28;2.75;;;21.70;99.90;;;;;;5044451;28;20225;-68
2023/09/04 07:34:01;;;;;;;2.67;2.40;;;21.70;99.80;;;;;;5059956;28;20210;-68
2023/09/04 07:36:27;;;;;;;2.72;2.25;;;21.70;99.80;;;;;;5060440;28;20265;-67
2023/09/04 07:38:53;;;;;;;4.35;2.45;;;21.70;99.50;;;;;;5063782;28;20189;-67
2023/09/04 07:41:19;;;;;;;4.55;2.60;;;21.70;99.60;;;;;;5057676;28;20220;-67
2023/09/04 07:43:44;;;;;;;3.85;2.95;;;21.70;99.60;;;;;;5062126;28;20190;-67
2023/09/04 07:46:10;;;;;;;3.42;2.85;;;21.70;99.50;;;;;;5055246;28;20192;-68
2023/09/04 07:48:36;;;;;;;2.67;2.42;;;21.80;99.60;;;;;;5055461;28;20301;-67
2023/09/04 07:51:06;;;;;;;4.15;2.85;;;21.80;99.30;;;;;;5063813;28;20182;-67
2023/09/04 07:53:32;;;;;;;3.70;2.70;;;21.80;99.20;;;;;;5046879;28;20193;-68
2023/09/04 07:55:57;;;;;;;4.15;2.67;;;21.80;99.30;;;;;;5051857;28;20170;-68
2023/09/04 07:58:24;;;;;;;3.47;2.70;;;21.80;99.20;;;;;;5060304;28;20206;-68
2023/09/04 08:00:51;;;;;;;2.95;2.75;;;21.90;99.20;;;;;;5062580;28;20240;-67
2023/09/04 08:03:18;;;;;;;2.80;2.60;;;21.90;99.10;;;;;;5064898;28;20193;-67
2023/09/04 08:05:44;;;;;;;2.67;2.30;;;21.90;99.10;;;;;;5053342;28;20198;-67
2023/09/04 08:08:11;;;;;;;3.95;2.65;;;21.90;99.00;;;;;;5060978;28;20279;-68
2023/09/04 08:10:43;;;;;;;2.60;2.35;;;21.90;99.00;;;;;;5061522;28;20282;-67
2023/09/04 08:13:14;;;;;;;2.63;2.30;;;21.90;99.00;;;;;;5063267;28;20230;-68
2023/09/04 08:15:41;;;;;;;2.75;2.50;;;22.00;99.00;;;;;;5045478;28;20224;-68
2023/09/04 08:18:08;;;;;;;2.67;2.47;;;22.00;99.00;;;;;;5059764;28;20210;-67
2023/09/04 08:20:35;;;;;;;2.40;2.20;;;22.00;99.00;;;;;;5059751;28;20186;-68
2023/09/04 08:23:02;;;;;;;3.13;2.35;;;22.00;99.10;;;;;;5052737;28;20248;-67
2023/09/04 08:25:28;;;;;;;5.05;2.45;;;22.00;99.10;;;;;;5059413;28;20189;-68
2023/09/04 08:27:53;;;;;;;2.30;2.10;;;22.00;99.10;;;;;;5062029;28;20210;-67
2023/09/04 08:30:19;;;;;;;2.65;2.40;;;22.00;99.20;;;;;;5062920;28;20182;-67
2023/09/04 08:32:45;;;;;;;3.63;2.45;;;22.10;99.30;;;;;;5062548;28;20609;-67
2023/09/04 08:35:12;;;;;;;2.97;2.60;;;22.00;99.30;;;;;;5042918;28;20254;-68
2023/09/04 08:37:39;;;;;;;2.85;2.50;;;22.10;99.40;;;;;;5060255;28;20681;-68
2023/09/04 08:40:06;;;;;;;3.20;2.70;;;22.10;99.40;;;;;;5054612;28;20269;-67
2023/09/04 08:42:32;;;;;;;2.78;2.35;;;22.10;99.40;;;;;;5054229;28;20250;-68
2023/09/04 08:44:59;;;;;;;2.70;2.47;;;22.10;99.30;;;;;;5051134;28;20182;-69
2023/09/04 08:47:25;;;;;;;4.18;2.60;;;22.10;99.40;;;;;;5058888;28;20206;-67
2023/09/04 08:49:53;;;;;;;2.70;2.50;;;22.10;99.30;;;;;;5062194;28;20193;-67
2023/09/04 08:52:19;;;;;;;3.10;2.60;;;22.20;99.30;;;;;;5063766;28;20193;-68
2023/09/04 08:54:47;;;;;;;2.50;2.30;;;22.10;99.30;;;;;;5053212;28;20186;-68
2023/09/04 08:57:14;;;;;;;2.40;2.20;;;22.20;99.40;;;;;;5060203;28;20211;-68
2023/09/04 08:59:40;;;;;;;2.80;2.40;;;22.20;99.40;;;;;;5050619;28;20173;-67
2023/09/04 09:02:14;;;;;;;2.63;2.42;;;22.20;99.40;;;;;;5058855;28;20174;-67
2023/09/04 09:04:40;;;;;;;2.60;2.40;;;22.20;99.40;;;;;;5058849;28;20182;-68
2023/09/04 09:07:09;;;;;;;2.30;2.10;;;22.20;99.40;;;;;;5058927;28;20686;-67
2023/09/04 09:09:41;;;;;;;2.50;2.25;;;22.20;99.40;;;;;;5059084;28;20209;-69
2023/09/04 09:12:07;;;;;;;2.40;2.20;;;22.20;99.30;;;;;;5051306;28;20190;-69
2023/09/04 09:14:33;;;;;;;2.40;2.20;;;22.20;99.40;;;;;;5059305;28;20181;-68
2023/09/04 09:17:15;;;;;;;2.33;2.13;;;22.20;99.40;;;;;;5066983;28;20197;-68
2023/09/04 09:19:43;;;;;;;2.60;2.40;;;22.20;99.40;;;;;;5058932;28;20715;-67
2023/09/04 09:22:17;;;;;;;4.40;2.22;;;22.20;99.30;;;;;;5066607;28;20273;-67
2023/09/04 09:24:59;;;;;;;2.05;1.88;;;22.20;99.10;;;;;;5060468;28;20199;-67
2023/09/04 09:27:29;;;;;;;2.35;2.10;;;22.20;99.10;;;;;;5061852;28;20295;-68
2023/09/04 09:30:00;;;;;;;2.20;2.10;;;22.20;99.00;;;;;;5051938;28;20182;-68
2023/09/04 09:32:33;;;;;;;2.75;2.53;;;22.20;99.10;;;;;;5058819;28;20209;-67
2023/09/04 09:35:00;;;;;;;2.60;2.40;;;22.20;99.10;;;;;;5060910;28;20186;-67
2023/09/04 09:37:31;;;;;;;2.40;2.20;;;22.20;99.20;;;;;;5064144;28;20230;-68
2023/09/04 09:39:57;;;;;;;2.60;2.35;;;22.20;99.20;;;;;;5061886;28;20254;-67
2023/09/04 09:42:25;;;;;;;2.78;2.58;;;22.30;99.30;;;;;;5062321;28;20667;-67
2023/09/04 09:44:54;;;;;;;2.47;2.10;;;22.20;99.20;;;;;;5053615;28;20202;-67
2023/09/04 09:47:21;;;;;;;2.30;2.20;;;22.20;99.30;;;;;;5061981;28;20262;-66
2023/09/04 09:49:47;;;;;;;2.30;2.20;;;22.20;99.10;;;;;;5064184;28;20189;-67
2023/09/04 09:52:13;;;;;;;3.80;2.17;;;22.20;99.20;;;;;;5058244;28;20185;-68
2023/09/04 09:54:47;;;;;;;2.22;2.03;;;22.20;99.00;;;;;;5059289;28;20236;-68
2023/09/04 09:57:17;;;;;;;2.03;1.92;;;22.20;99.00;;;;;;5055024;28;20608;-67
2023/09/04 09:59:48;;;;;;;2.05;1.90;;;22.20;98.90;;;;;;5062472;28;20193;-67
2023/09/04 10:02:23;;;;;;;2.20;2.00;;;22.20;98.80;;;;;;5055325;28;20179;-67
2023/09/04 10:04:50;;;;;;;3.08;2.00;;;22.20;99.00;;;;;;5045359;28;20182;-68
2023/09/04 10:07:29;;;;;;;2.40;2.20;;;22.20;98.60;;;;;;5058291;28;20194;-68
2023/09/04 10:10:03;;;;;;;2.03;1.90;;;22.20;98.60;;;;;;5065516;28;20235;-67
2023/09/04 10:12:43;;;;;;;2.47;2.28;;;22.20;98.60;;;;;;5062358;28;20257;-68
2023/09/04 10:15:14;;;;;;;2.40;2.08;;;22.20;98.60;;;;;;5062378;28;20190;-67
2023/09/04 10:18:02;;;;;;;2.15;1.95;;;22.20;98.40;;;;;;5061965;28;20312;-69
2023/09/04 10:20:28;;;;;;;2.10;1.90;;;22.20;98.40;;;;;;5062294;28;20307;-68
2023/09/04 10:23:09;;;;;;;1.98;1.88;;;22.20;98.30;;;;;;5065379;28;20185;-68
2023/09/04 10:26:03;;;;;;;2.08;1.92;;;22.20;98.20;;;;;;5061866;28;20194;-67
2023/09/04 10:28:57;;;;;;;2.15;2.00;;;22.30;98.10;;;;;;5055551;28;20218;-67
2023/09/04 10:31:24;;;;;;;2.25;1.67;;;22.30;98.00;;;;;;5045578;28;20186;-67
2023/09/04 10:33:50;;;;;;;2.30;2.10;;;22.30;98.10;;;;;;5045705;28;20186;-67
2023/09/04 10:36:16;;;;;;;2.40;1.80;;;22.20;98.10;;;;;;5066079;28;20211;-68
2023/09/04 10:38:43;;;;;;;2.63;2.42;;;22.20;97.90;;;;;;5066152;28;20194;-67
2023/09/04 10:41:10;;;;;;;2.90;2.38;;;22.20;97.10;;;;;;5061649;28;20214;-67
2023/09/04 10:43:41;;;;;;;3.35;2.13;;;22.20;96.80;;;;;;5035787;28;20179;-68
2023/09/04 10:46:12;;;;;;;2.20;1.95;;;22.20;96.50;;;;;;5057141;28;20191;-67
2023/09/04 10:48:44;;;;;;;2.08;1.98;;;22.20;96.10;;;;;;5066194;28;20213;-69
2023/09/04 10:51:36;;;;;;;2.63;2.30;;;22.20;96.10;;;;;;5064912;28;20189;-68
2023/09/04 10:54:26;;;;;;;4.70;2.40;;;22.20;95.50;;;;;;5064066;28;20189;-67
2023/09/04 10:57:05;;;;;;;2.13;1.98;;;22.30;95.20;;;;;;5062730;28;20242;-68
2023/09/04 10:59:54;;;;;;;2.70;2.50;;;22.20;94.90;;;;;;5056315;28;20264;-68
2023/09/04 11:02:31;;;;;;;2.60;2.40;;;22.20;94.70;;;;;;5053707;28;20179;-69
2023/09/04 11:05:00;;;;;;;3.40;2.42;;;22.30;94.30;;;;;;5063431;28;20265;-69
2023/09/04 11:07:29;;;;;;;3.92;2.20;;;22.20;93.90;;;;;;5056406;28;20293;-69
2023/09/04 11:10:17;;;;;;;2.60;2.40;;;22.20;94.30;;;;;;5052064;28;20178;-68
2023/09/04 11:12:45;;;;;;;2.33;2.13;;;22.20;94.40;;;;;;5064969;28;20170;-69
2023/09/04 11:15:14;;;;;;;2.40;2.10;;;22.10;94.50;;;;;;5045280;28;20196;-69
2023/09/04 11:17:48;;;;;;;3.03;2.25;;;22.10;94.70;;;;;;5044398;28;20195;-70
2023/09/04 11:20:17;;;;;;;2.80;2.60;;;22.00;94.90;;;;;;5052401;28;20552;-69
2023/09/04 11:22:49;;;;;;;2.60;2.40;;;22.00;95.20;;;;;;5060915;28;20171;-68
2023/09/04 11:25:16;;;;;;;2.45;2.25;;;22.00;95.10;;;;;;5063714;28;20178;-68
2023/09/04 11:27:44;;;;;;;2.50;2.30;;;22.00;95.00;;;;;;5063999;28;20210;-68
2023/09/04 11:30:11;;;;;;;3.80;2.38;;;22.00;94.80;;;;;;5061625;28;20202;-70
2023/09/04 11:32:39;;;;;;;2.85;2.47;;;22.00;95.00;;;;;;5045448;28;20186;-68
2023/09/04 11:35:13;;;;;;;3.08;2.17;;;22.00;94.70;;;;;;5064078;28;20187;-69
2023/09/04 11:37:39;;;;;;;2.50;2.30;;;22.00;95.10;;;;;;5065254;28;20205;-69
2023/09/04 11:40:06;;;;;;;2.97;2.30;;;21.90;95.10;;;;;;5063630;28;20209;-69
2023/09/04 11:42:33;;;;;;;2.58;2.38;;;21.90;95.00;;;;;;5064180;28;20178;-68
2023/09/04 11:44:59;;;;;;;2.55;2.35;;;21.90;95.00;;;;;;5062235;28;20274;-70
2023/09/04 11:47:25;;;;;;;2.40;2.20;;;21.90;94.80;;;;;;5064896;28;20276;-69
2023/09/04 11:49:51;;;;;;;2.80;2.50;;;21.90;94.70;;;;;;5057988;28;20413;-69
2023/09/04 11:52:21;;;;;;;2.47;2.28;;;21.90;94.60;;;;;;5051879;28;20649;-69
2023/09/04 11:54:47;;;;;;;4.20;2.30;;;21.90;94.80;;;;;;5043547;28;20277;-69
2023/09/04 11:57:13;;;;;;;2.65;2.42;;;21.90;95.20;;;;;;5044268;28;20688;-69
2023/09/04 11:59:42;;;;;;;2.63;2.45;;;21.90;94.80;;;;;;5060436;28;20189;-69
2023/09/04 12:02:08;;;;;;;2.70;2.50;;;21.90;95.00;;;;;;5051548;28;20205;-69
2023/09/04 12:04:35;;;;;;;3.05;2.30;;;21.90;95.10;;;;;;5042410;28;20290;-69
2023/09/04 12:07:03;;;;;;;2.58;2.38;;;21.90;94.80;;;;;;5057833;28;20202;-67
2023/09/04 12:09:30;;;;;;;2.80;2.60;;;21.90;94.70;;;;;;5055261;28;20250;-69
2023/09/04 12:11:56;;;;;;;2.60;2.40;;;21.90;94.40;;;;;;5054432;28;20186;-69
2023/09/04 12:14:22;;;;;;;2.72;2.53;;;21.90;94.90;;;;;;5064791;28;20201;-69
2023/09/04 12:16:48;;;;;;;3.47;2.58;;;21.90;94.60;;;;;;5064311;28;20194;-69
2023/09/04 12:19:16;;;;;;;2.83;2.63;;;21.90;94.50;;;;;;5046472;28;20572;-69
2023/09/04 12:21:43;;;;;;;2.90;2.70;;;21.90;94.50;;;;;;5059922;28;20186;-69
2023/09/04 12:24:12;;;;;;;3.13;2.83;;;21.90;94.60;;;;;;5062405;28;20179;-69
2023/09/04 12:26:39;;;;;;;3.03;2.58;;;21.90;94.40;;;;;;5054803;28;20233;-69
2023/09/04 12:29:06;;;;;;;5.00;2.90;;;21.90;94.70;;;;;;5061956;28;20225;-69
2023/09/04 12:31:32;;;;;;;2.72;2.53;;;21.90;94.50;;;;;;5059464;28;20188;-69
2023/09/04 12:33:58;;;;;;;2.50;2.30;;;21.90;94.60;;;;;;5044881;28;20176;-68
2023/09/04 12:36:24;;;;;;;3.03;2.40;;;21.90;94.40;;;;;;5062991;28;20532;-69
2023/09/04 12:38:49;;;;;;;2.60;2.40;;;21.90;94.60;;;;;;5039604;28;20238;-69
2023/09/04 12:41:15;;;;;;;2.65;2.47;;;21.90;94.50;;;;;;5045319;28;20220;-68
2023/09/04 12:43:41;;;;;;;3.10;2.20;;;21.90;94.20;;;;;;5054745;28;20192;-71
2023/09/04 12:46:07;;;;;;;2.63;2.33;;;21.90;94.40;;;;;;5053148;28;20174;-69
2023/09/04 12:48:35;;;;;;;2.58;2.38;;;21.90;94.20;;;;;;5059259;28;20275;-69
2023/09/04 12:51:00;;;;;;;3.17;2.80;;;21.90;94.50;;;;;;5069137;28;20178;-68